createdAt,value
2023-07-17T00:02:04.520Z,64.00
2023-07-17T00:04:59.936Z,61.79
2023-07-17T00:07:55.824Z,59.00
2023-07-17T00:10:45.829Z,58.49
2023-07-17T00:13:33.980Z,60.77
2023-07-17T00:16:22.343Z,63.30
2023-07-17T00:19:15.004Z,64.57
2023-07-17T00:22:04.713Z,62.89
2023-07-17T00:24:54.083Z,61.67
2023-07-17T00:27:41.820Z,61.50
2023-07-17T00:30:29.483Z,59.18
2023-07-17T00:33:22.780Z,58.67
2023-07-17T00:36:11.027Z,60.37
2023-07-17T00:38:59.226Z,63.04
2023-07-17T00:41:50.540Z,62.52
2023-07-17T00:44:39.677Z,62.14
2023-07-17T00:47:31.185Z,61.27
2023-07-17T00:50:23.039Z,61.50
2023-07-17T00:53:11.508Z,61.43
2023-07-17T00:56:02.051Z,58.47
2023-07-17T00:59:02.780Z,59.26
2023-07-17T01:01:58.222Z,61.17
2023-07-17T01:04:48.488Z,63.55
2023-07-17T01:07:38.961Z,63.61
2023-07-17T01:10:27.494Z,62.13
2023-07-17T01:13:15.237Z,60.73
2023-07-17T01:16:05.845Z,61.33
2023-07-17T01:18:54.814Z,59.69
2023-07-17T01:21:59.260Z,60.41
2023-07-17T01:24:49.364Z,65.11
2023-07-17T01:27:37.180Z,63.68
2023-07-17T01:30:25.575Z,61.76
2023-07-17T01:33:13.192Z,60.96
2023-07-17T01:36:03.417Z,61.66
2023-07-17T01:38:51.614Z,60.47
2023-07-17T01:41:39.891Z,61.61
2023-07-17T01:44:29.497Z,59.85
2023-07-17T01:47:17.956Z,60.40
2023-07-17T01:50:07.412Z,63.33
2023-07-17T01:52:55.569Z,63.21
2023-07-17T01:55:48.666Z,63.16
2023-07-17T01:58:37.368Z,62.10
2023-07-17T02:01:25.417Z,62.51
2023-07-17T02:04:14.469Z,61.31
2023-07-17T02:07:02.330Z,61.76
2023-07-17T02:09:50.199Z,62.33
2023-07-17T02:12:43.150Z,61.91
2023-07-17T02:15:31.118Z,60.96
2023-07-17T02:18:19.118Z,59.82
2023-07-17T02:21:07.092Z,61.40
2023-07-17T02:23:55.038Z,64.06
2023-07-17T02:26:42.595Z,64.81
2023-07-17T02:29:30.935Z,62.86
2023-07-17T02:32:19.187Z,63.23
2023-07-17T02:35:07.867Z,61.68
2023-07-17T02:37:56.766Z,61.89
2023-07-17T02:40:44.546Z,61.94
2023-07-17T02:43:32.616Z,61.32
2023-07-17T02:46:20.351Z,60.83
2023-07-17T02:49:13.192Z,60.47
2023-07-17T02:52:01.464Z,58.70
2023-07-17T02:54:49.293Z,58.55
2023-07-17T02:57:38.185Z,60.93
2023-07-17T03:00:26.721Z,63.60
2023-07-17T03:03:15.263Z,65.44
2023-07-17T03:06:05.552Z,63.96
2023-07-17T03:08:53.556Z,61.65
2023-07-17T03:11:41.668Z,61.89
2023-07-17T03:14:30.635Z,60.60
2023-07-17T03:17:18.404Z,58.75
2023-07-17T03:20:10.639Z,59.43
2023-07-17T03:22:58.732Z,63.81
2023-07-17T03:25:46.693Z,63.28
2023-07-17T03:28:36.346Z,61.49
2023-07-17T03:31:24.238Z,61.28
2023-07-17T03:34:12.947Z,60.43
2023-07-17T03:37:04.264Z,60.33
2023-07-17T03:39:52.418Z,58.40
2023-07-17T03:42:40.202Z,58.33
2023-07-17T03:45:33.466Z,60.71
2023-07-17T03:48:22.054Z,64.89
2023-07-17T03:51:10.529Z,63.12
2023-07-17T03:53:58.739Z,61.35
2023-07-17T03:56:47.315Z,59.51
2023-07-17T03:59:56.785Z,58.41
2023-07-17T04:02:48.884Z,59.55
2023-07-17T04:05:43.415Z,64.19
2023-07-17T04:08:31.814Z,61.82
2023-07-17T04:11:20.982Z,60.55
2023-07-17T04:14:12.709Z,59.32
2023-07-17T04:17:05.294Z,57.83
2023-07-17T04:20:07.798Z,59.42
2023-07-17T04:23:01.668Z,62.44
2023-07-17T04:25:54.348Z,64.81
2023-07-17T04:28:43.693Z,61.14
2023-07-17T04:31:35.252Z,57.93
2023-07-17T04:34:23.877Z,59.23
2023-07-17T04:37:11.911Z,63.53
2023-07-17T04:40:00.859Z,62.75
2023-07-17T04:42:54.743Z,57.85
2023-07-17T04:45:45.948Z,58.17
2023-07-17T04:48:38.902Z,60.44
2023-07-17T04:51:27.171Z,63.22
2023-07-17T04:54:15.429Z,60.29
2023-07-17T04:57:08.092Z,58.48
2023-07-17T04:59:56.200Z,59.50
2023-07-17T05:02:45.998Z,59.66
2023-07-17T05:05:34.543Z,56.65
2023-07-17T05:08:27.639Z,55.68
2023-07-17T05:11:16.444Z,55.64
2023-07-17T05:14:07.524Z,53.72
2023-07-17T05:16:57.304Z,53.38
2023-07-17T05:19:45.700Z,52.03
2023-07-17T05:22:35.283Z,48.18
2023-07-17T05:25:26.780Z,49.54
2023-07-17T05:28:15.801Z,47.86
2023-07-17T05:31:05.849Z,46.33
2023-07-17T05:33:59.748Z,46.28
2023-07-17T05:36:49.297Z,44.96
2023-07-17T05:39:37.146Z,45.39
2023-07-17T05:42:25.319Z,44.83
2023-07-17T05:45:13.843Z,43.76
2023-07-17T05:48:02.049Z,43.45
2023-07-17T05:50:50.462Z,44.23
2023-07-17T05:53:38.856Z,43.40
2023-07-17T05:56:27.562Z,43.59
2023-07-17T05:59:16.621Z,44.04
2023-07-17T06:02:09.373Z,44.13
2023-07-17T06:05:02.254Z,43.85
2023-07-17T06:07:50.403Z,44.08
2023-07-17T06:10:39.296Z,43.31
2023-07-17T06:13:27.355Z,43.16
2023-07-17T06:16:15.161Z,42.44
2023-07-17T06:19:05.549Z,41.48
2023-07-17T06:21:55.763Z,39.90
2023-07-17T06:24:47.020Z,37.73
2023-07-17T06:27:38.151Z,37.37
2023-07-17T06:30:29.021Z,37.66
2023-07-17T06:33:16.860Z,37.37
2023-07-17T06:36:05.441Z,36.97
2023-07-17T06:38:53.813Z,37.24
2023-07-17T06:41:41.834Z,37.39
2023-07-17T06:44:31.147Z,36.76
2023-07-17T06:47:36.701Z,35.64
2023-07-17T06:50:31.262Z,35.16
2023-07-17T06:53:22.419Z,33.63
2023-07-17T06:56:13.110Z,33.06
2023-07-17T06:59:02.663Z,32.08
2023-07-17T07:01:50.673Z,30.82
2023-07-17T07:04:38.349Z,30.14
2023-07-17T07:07:28.344Z,29.82
2023-07-17T07:10:16.496Z,29.44
2023-07-17T07:13:04.494Z,28.91
2023-07-17T07:15:53.135Z,28.29
2023-07-17T07:18:46.338Z,27.28
2023-07-17T07:21:39.206Z,27.29
2023-07-17T07:24:29.643Z,27.33
2023-07-17T07:27:21.018Z,26.32
2023-07-17T07:30:10.229Z,26.02
2023-07-17T07:33:01.919Z,27.02
2023-07-17T07:35:51.797Z,28.48
2023-07-17T07:38:40.221Z,30.24
2023-07-17T07:41:32.227Z,31.35
2023-07-17T07:44:21.531Z,31.17
2023-07-17T07:47:09.551Z,30.26
2023-07-17T07:49:58.055Z,30.24
2023-07-17T07:52:46.263Z,30.55
2023-07-17T07:55:34.415Z,29.60
2023-07-17T07:58:22.765Z,28.47
2023-07-17T08:01:11.386Z,27.72
2023-07-17T08:04:01.217Z,26.21
2023-07-17T08:06:51.050Z,25.76
2023-07-17T08:09:41.008Z,24.82
2023-07-17T08:12:34.202Z,23.87
2023-07-17T08:15:26.500Z,22.60
2023-07-17T08:18:22.555Z,22.27
2023-07-17T08:21:11.408Z,21.91
2023-07-17T08:24:02.515Z,21.76
2023-07-17T08:27:03.773Z,21.53
2023-07-17T08:29:55.108Z,21.52
2023-07-17T08:32:48.929Z,20.36
2023-07-17T08:35:39.956Z,20.14
2023-07-17T08:38:31.084Z,19.83
2023-07-17T08:41:23.720Z,20.45
2023-07-17T08:44:16.357Z,21.15
2023-07-17T08:47:09.756Z,22.34
2023-07-17T08:50:05.631Z,22.43
2023-07-17T08:52:59.528Z,22.35
2023-07-17T08:55:57.334Z,22.37
2023-07-17T08:58:53.842Z,22.11
2023-07-17T09:01:43.548Z,21.18
2023-07-17T09:04:37.792Z,20.94
2023-07-17T09:07:28.901Z,20.30
2023-07-17T09:10:22.473Z,21.30
2023-07-17T09:13:11.316Z,21.42
2023-07-17T09:16:21.728Z,22.99
2023-07-17T09:19:09.861Z,24.53
2023-07-17T09:22:05.934Z,25.62
2023-07-17T09:24:53.864Z,27.23
2023-07-17T09:27:55.099Z,26.83
2023-07-17T09:30:43.258Z,28.05
2023-07-17T09:33:37.313Z,28.13
2023-07-17T09:36:25.771Z,28.65
2023-07-17T09:39:15.303Z,29.11
2023-07-17T09:42:03.185Z,29.58
2023-07-17T09:44:53.773Z,29.44
2023-07-17T09:47:42.362Z,26.30
2023-07-17T09:50:31.732Z,26.58
2023-07-17T09:53:21.724Z,26.15
2023-07-17T09:56:15.202Z,25.69
2023-07-17T09:59:15.532Z,24.10
2023-07-17T10:02:12.017Z,23.33
2023-07-17T10:05:02.849Z,21.45
2023-07-17T10:07:54.407Z,21.53
2023-07-17T10:10:43.312Z,20.89
2023-07-17T10:13:31.537Z,21.50
2023-07-17T10:16:20.538Z,21.99
2023-07-17T10:19:09.718Z,22.21
2023-07-17T10:22:00.225Z,20.98
2023-07-17T10:24:49.391Z,20.40
2023-07-17T10:27:45.423Z,20.55
2023-07-17T10:30:39.114Z,21.53
2023-07-17T10:33:36.681Z,21.82
2023-07-17T10:36:44.263Z,22.33
2023-07-17T10:39:32.419Z,22.92
2023-07-17T10:42:21.700Z,23.65
2023-07-17T10:45:12.580Z,24.08
2023-07-17T10:48:01.445Z,24.52
2023-07-17T10:50:56.017Z,25.19
2023-07-17T10:53:48.749Z,26.24
2023-07-17T10:56:49.650Z,26.36
2023-07-17T10:59:38.706Z,27.61
2023-07-17T11:02:28.025Z,29.22
2023-07-17T11:05:16.711Z,30.96
2023-07-17T11:08:09.604Z,32.95
2023-07-17T11:11:00.501Z,33.73
2023-07-17T11:13:52.851Z,33.20
2023-07-17T11:16:43.681Z,33.32
2023-07-17T11:19:35.401Z,34.25
2023-07-17T11:22:31.173Z,34.44
2023-07-17T11:25:25.737Z,34.25
2023-07-17T11:28:15.679Z,33.59
2023-07-17T11:31:04.611Z,33.14
2023-07-17T11:34:06.559Z,32.43
2023-07-17T11:36:55.846Z,31.84
2023-07-17T11:39:43.318Z,31.98
2023-07-17T11:42:51.997Z,32.42
2023-07-17T11:45:41.627Z,33.82
2023-07-17T11:48:42.491Z,34.70
2023-07-17T11:51:30.210Z,35.97
2023-07-17T11:54:18.289Z,37.34
2023-07-17T11:57:06.641Z,38.05
2023-07-17T12:00:06.188Z,39.03
2023-07-17T12:03:01.829Z,40.44
2023-07-17T12:05:49.898Z,41.16
2023-07-17T12:08:38.953Z,42.11
2023-07-17T12:11:27.546Z,43.40
2023-07-17T12:14:16.924Z,43.70
2023-07-17T12:17:05.434Z,44.18
2023-07-17T12:19:53.314Z,44.55
2023-07-17T12:22:43.709Z,45.35
2023-07-17T12:25:32.326Z,46.32
2023-07-17T12:28:21.944Z,47.33
2023-07-17T12:31:11.106Z,48.44
2023-07-17T12:33:59.343Z,49.60
2023-07-17T12:36:49.404Z,49.40
2023-07-17T12:39:37.249Z,49.73
2023-07-17T12:42:26.614Z,48.96
2023-07-17T12:45:16.042Z,47.99
2023-07-17T12:48:08.788Z,45.61
2023-07-17T12:50:59.105Z,44.46
2023-07-17T12:53:49.843Z,44.32
2023-07-17T12:56:37.956Z,44.20
2023-07-17T12:59:26.244Z,44.08
2023-07-17T13:02:14.849Z,44.03
2023-07-17T13:05:03.842Z,44.03
2023-07-17T13:07:52.583Z,43.51
2023-07-17T13:10:41.328Z,42.99
2023-07-17T13:13:29.096Z,42.15
2023-07-17T13:16:18.108Z,41.87
2023-07-17T13:19:06.358Z,41.35
2023-07-17T13:21:55.654Z,40.77
2023-07-17T13:24:44.028Z,40.51
2023-07-17T13:27:32.424Z,40.80
2023-07-17T13:30:20.502Z,41.05
2023-07-17T13:33:09.347Z,41.52
2023-07-17T13:35:59.289Z,42.39
2023-07-17T13:38:47.335Z,43.71
2023-07-17T13:41:49.317Z,45.99
2023-07-17T13:44:37.206Z,47.73
2023-07-17T13:47:25.675Z,50.02
2023-07-17T13:50:14.168Z,50.84
2023-07-17T13:53:04.718Z,51.74
2023-07-17T13:55:52.594Z,52.82
2023-07-17T13:58:43.902Z,53.92
2023-07-17T14:01:31.960Z,53.89
2023-07-17T14:04:19.975Z,54.98
2023-07-17T14:07:10.905Z,54.26
2023-07-17T14:10:02.081Z,54.36
2023-07-17T14:12:50.393Z,54.81
2023-07-17T14:15:38.905Z,54.02
2023-07-17T14:18:32.845Z,54.29
2023-07-17T14:21:23.027Z,53.57
2023-07-17T14:24:13.464Z,53.36
2023-07-17T14:27:01.562Z,53.37
2023-07-17T14:29:56.764Z,53.02
2023-07-17T14:32:45.826Z,53.38
2023-07-17T14:35:50.607Z,52.76
2023-07-17T14:38:40.179Z,52.81
2023-07-17T14:41:31.313Z,52.06
2023-07-17T14:44:21.704Z,51.31
2023-07-17T14:47:09.750Z,50.95
2023-07-17T14:49:59.056Z,50.31
2023-07-17T14:52:47.889Z,49.71
2023-07-17T14:55:41.971Z,49.14
2023-07-17T14:58:31.124Z,48.93
2023-07-17T15:01:20.122Z,48.81
2023-07-17T15:04:09.134Z,47.98
2023-07-17T15:07:24.429Z,47.75
2023-07-17T15:10:21.596Z,48.05
2023-07-17T15:13:10.138Z,47.99
2023-07-17T15:15:58.789Z,48.06
2023-07-17T15:18:47.007Z,47.72
2023-07-17T15:21:36.005Z,47.89
2023-07-17T15:24:25.459Z,48.58
2023-07-17T15:27:15.650Z,48.62
2023-07-17T15:30:07.743Z,49.16
2023-07-17T15:33:00.799Z,48.98
2023-07-17T15:35:49.826Z,49.25
2023-07-17T15:38:40.533Z,49.41
2023-07-17T15:41:32.975Z,49.78
2023-07-17T15:44:23.092Z,49.80
2023-07-17T15:47:13.830Z,50.27
2023-07-17T15:50:05.566Z,50.31
2023-07-17T15:52:53.781Z,50.35
2023-07-17T15:55:42.270Z,50.75
2023-07-17T15:58:36.170Z,50.97
2023-07-17T16:01:35.116Z,51.19
2023-07-17T16:04:25.275Z,51.68
2023-07-17T16:07:17.357Z,51.90
2023-07-17T16:10:14.932Z,51.67
2023-07-17T16:13:09.665Z,51.46
2023-07-17T16:15:57.732Z,51.40
2023-07-17T16:18:45.621Z,51.34
2023-07-17T16:21:33.678Z,51.43
2023-07-17T16:24:28.971Z,51.65
2023-07-17T16:27:17.236Z,51.22
2023-07-17T16:30:08.096Z,51.16
2023-07-17T16:32:55.938Z,50.82
2023-07-17T16:35:48.090Z,50.50
2023-07-17T16:38:36.530Z,50.90
2023-07-17T16:44:21.364Z,50.44
2023-07-17T16:47:12.516Z,50.47
2023-07-17T16:49:59.365Z,50.56
2023-07-17T16:52:46.612Z,50.53
2023-07-17T16:55:34.118Z,50.60
2023-07-17T16:58:23.010Z,51.01
2023-07-17T17:01:10.218Z,51.49
2023-07-17T17:03:58.257Z,51.80
2023-07-17T17:06:46.266Z,51.93
2023-07-17T17:09:33.360Z,52.30
2023-07-17T17:12:22.493Z,52.64
2023-07-17T17:15:10.478Z,52.85
2023-07-17T17:18:00.968Z,53.45
2023-07-17T17:20:50.803Z,55.32
2023-07-17T17:23:37.860Z,55.12
2023-07-17T17:26:25.425Z,56.21
2023-07-17T17:29:13.894Z,57.82
2023-07-17T17:32:01.470Z,58.40
2023-07-17T17:34:48.701Z,59.40
2023-07-17T17:37:37.568Z,60.56
2023-07-17T17:40:24.901Z,63.55
2023-07-17T17:43:12.407Z,64.34
2023-07-17T17:46:02.524Z,63.81
2023-07-17T17:48:51.890Z,60.35
2023-07-17T17:51:39.554Z,57.33
2023-07-17T17:54:31.481Z,59.09
2023-07-17T17:57:19.097Z,60.70
2023-07-17T18:00:12.760Z,60.51
2023-07-17T18:03:10.623Z,64.08
2023-07-17T18:05:57.781Z,66.23
2023-07-17T18:08:44.462Z,65.51
2023-07-17T18:11:34.285Z,65.03
2023-07-17T18:14:22.881Z,63.48
2023-07-17T18:17:12.485Z,59.57
2023-07-17T18:26:37.036Z,61.62
2023-07-17T18:29:25.377Z,64.06
2023-07-17T18:32:12.393Z,61.77
2023-07-17T18:35:00.115Z,63.23
2023-07-17T18:37:46.701Z,60.41
2023-07-17T18:40:35.673Z,58.23
2023-07-17T18:43:22.442Z,59.33
2023-07-17T18:46:09.937Z,60.32
2023-07-17T18:49:04.064Z,62.98
2023-07-17T18:51:56.853Z,62.85
2023-07-17T18:54:43.544Z,61.73
2023-07-17T18:57:31.651Z,58.10
2023-07-17T19:00:23.362Z,59.11
2023-07-17T19:03:10.843Z,61.07
2023-07-17T19:06:00.329Z,62.42
2023-07-17T19:08:48.665Z,61.05
2023-07-17T19:11:35.489Z,61.16
2023-07-17T19:14:22.053Z,58.37
2023-07-17T19:17:08.953Z,59.39
2023-07-17T19:19:55.500Z,61.05
2023-07-17T19:22:42.455Z,62.83
2023-07-17T19:25:36.873Z,63.61
2023-07-17T19:28:25.190Z,61.09
2023-07-17T19:31:13.473Z,60.82
2023-07-17T19:34:00.397Z,59.60
2023-07-17T19:36:47.237Z,58.42
2023-07-17T19:39:34.391Z,59.77
2023-07-17T19:42:20.783Z,61.88
2023-07-17T19:45:20.449Z,64.43
2023-07-17T19:48:12.036Z,64.58
2023-07-17T19:51:02.518Z,63.37
2023-07-17T19:53:50.798Z,62.76
2023-07-17T19:56:40.392Z,59.29
2023-07-17T19:59:31.416Z,59.54
2023-07-17T20:02:18.521Z,60.83
2023-07-17T20:05:07.589Z,63.45
2023-07-17T20:07:55.174Z,63.27
2023-07-17T20:10:42.366Z,61.23
2023-07-17T20:13:35.283Z,60.97
2023-07-17T20:16:22.546Z,60.28
2023-07-17T20:19:10.203Z,59.54
2023-07-17T20:22:00.283Z,61.67
2023-07-17T20:24:48.991Z,63.76
2023-07-17T20:27:40.468Z,65.04
2023-07-17T20:30:34.143Z,64.26
2023-07-17T20:33:22.282Z,61.01
2023-07-17T20:36:39.699Z,61.55
2023-07-17T20:39:39.095Z,58.34
2023-07-17T20:42:44.833Z,59.71
2023-07-17T20:45:55.508Z,62.46
2023-07-17T20:48:43.424Z,63.23
2023-07-17T20:51:35.604Z,61.13
2023-07-17T20:54:27.493Z,59.32
2023-07-17T20:57:16.177Z,58.80
2023-07-17T21:00:11.028Z,60.60
2023-07-17T21:02:57.795Z,63.19
2023-07-17T21:05:44.682Z,64.12
2023-07-17T21:08:32.073Z,62.65
2023-07-17T21:11:18.560Z,61.43
2023-07-17T21:14:08.522Z,59.50
2023-07-17T21:16:55.110Z,59.17
2023-07-17T21:19:50.976Z,61.08
2023-07-17T21:22:40.764Z,63.26
2023-07-17T21:25:28.426Z,64.54
2023-07-17T21:28:17.599Z,63.78
2023-07-17T21:31:04.568Z,62.81
2023-07-17T21:33:51.109Z,60.69
2023-07-17T21:36:37.521Z,58.34
2023-07-17T21:39:24.857Z,60.00
2023-07-17T21:42:13.885Z,61.77
2023-07-17T21:45:20.450Z,64.04
2023-07-17T21:48:15.206Z,62.40
2023-07-17T21:51:06.944Z,61.79
2023-07-17T21:53:55.216Z,60.55
2023-07-17T21:56:42.271Z,59.32
2023-07-17T21:59:28.962Z,61.85
2023-07-17T22:02:16.960Z,63.30
2023-07-17T22:05:04.534Z,62.28
2023-07-17T22:07:51.266Z,60.75
2023-07-17T22:10:38.266Z,59.96
2023-07-17T22:13:26.100Z,59.57
2023-07-17T22:16:20.599Z,59.04
2023-07-17T22:19:14.398Z,61.91
2023-07-17T22:22:01.337Z,63.74
2023-07-17T22:24:50.328Z,62.30
2023-07-17T22:27:37.823Z,61.34
2023-07-17T22:30:37.566Z,60.30
2023-07-17T22:33:24.371Z,60.26
2023-07-17T22:36:11.011Z,59.36
2023-07-17T22:39:03.559Z,60.32
2023-07-17T22:41:50.719Z,62.83
2023-07-17T22:44:37.492Z,62.77
2023-07-17T22:47:24.670Z,61.70
2023-07-17T22:50:11.557Z,60.70
2023-07-17T22:52:59.861Z,61.10
2023-07-17T22:55:47.262Z,59.22
2023-07-17T22:58:37.330Z,59.88
2023-07-17T23:01:25.510Z,62.52
2023-07-17T23:04:14.685Z,64.52
2023-07-17T23:07:04.964Z,63.09
2023-07-17T23:09:53.597Z,61.71
2023-07-17T23:12:44.015Z,60.89
2023-07-17T23:15:30.794Z,61.07
2023-07-17T23:18:20.352Z,59.58
2023-07-17T23:21:11.104Z,59.18
2023-07-17T23:24:01.145Z,62.53
2023-07-17T23:26:48.146Z,63.69
2023-07-17T23:29:37.120Z,62.95
2023-07-17T23:32:27.092Z,60.98
2023-07-17T23:35:15.919Z,60.37
2023-07-17T23:38:03.159Z,60.23
2023-07-17T23:40:49.614Z,60.89
2023-07-17T23:43:37.560Z,60.25
2023-07-17T23:46:25.125Z,59.51
2023-07-17T23:49:11.687Z,60.99
2023-07-17T23:51:59.257Z,63.83
2023-07-17T23:54:47.687Z,64.01
2023-07-17T23:57:34.386Z,62.85
